AFL783 URWW-UTDD
Flight info
| Callsign | AFL783 |
|---|---|
| Flight time | 2h 58m |
| Altitude | 37000 |
| Route | NOKLI2E NOKLI N72 DUBOS W87 LIDUS G242 BABUR N102 KORAG N144 NAKUK Z514 OGNOB |
| Aircraft | B38M/M-SDE1FGHILORVWXY/HB1 |
Departure
| Time | 2026-04-23 13:29 |
|---|---|
| Airport | Volgograd International Airport (URWW) |
Arrival
| Time | 2026-04-23 16:28 |
|---|---|
| Airport | Dushanbe International Airport (UTDD) |
| Time | Latitude | Longitude | Altitude | Speed | Heading |
|---|---|---|---|---|---|
| 2026-04-23 13:02 | 48.79061 | 44.35449 | 0 ft | 0 kts | 340° |
| 2026-04-23 13:23 | 48.79054 | 44.35453 | 253 ft | 4 kts | 340° |
| 2026-04-23 13:23 | 48.79030 | 44.35469 | 421 ft | 4 kts | 319° |
| 2026-04-23 13:23 | 48.79019 | 44.35500 | 484 ft | 4 kts | 270° |
| 2026-04-23 13:23 | 48.79022 | 44.35528 | 486 ft | 1 kts | 249° |
| 2026-04-23 13:24 | 48.79023 | 44.35532 | 486 ft | 0 kts | 249° |
| 2026-04-23 13:26 | 48.79021 | 44.35521 | 486 ft | 5 kts | 249° |
| 2026-04-23 13:26 | 48.78992 | 44.35408 | 485 ft | 16 kts | 249° |
| 2026-04-23 13:27 | 48.78950 | 44.35239 | 485 ft | 18 kts | 249° |
| 2026-04-23 13:27 | 48.78874 | 44.35125 | 483 ft | 14 kts | 180° |
| 2026-04-23 13:27 | 48.78779 | 44.35161 | 481 ft | 15 kts | 165° |
| 2026-04-23 13:27 | 48.78678 | 44.35213 | 485 ft | 15 kts | 156° |
| 2026-04-23 13:28 | 48.78572 | 44.35244 | 486 ft | 14 kts | 197° |
| 2026-04-23 13:28 | 48.78544 | 44.35198 | 486 ft | 0 kts | 243° |
| 2026-04-23 13:28 | 48.78536 | 44.35172 | 482 ft | 19 kts | 243° |
| 2026-04-23 13:29 | 48.78345 | 44.34574 | 478 ft | 104 kts | 244° |
| 2026-04-23 13:29 | 48.77927 | 44.33253 | 531 ft | 164 kts | 244° |
| 2026-04-23 13:29 | 48.77435 | 44.31732 | 1484 ft | 159 kts | 245° |
| 2026-04-23 13:29 | 48.76956 | 44.30224 | 2414 ft | 167 kts | 245° |
| 2026-04-23 13:30 | 48.76421 | 44.28540 | 3057 ft | 187 kts | 245° |
| 2026-04-23 13:30 | 48.75829 | 44.26667 | 3713 ft | 206 kts | 245° |
| 2026-04-23 13:30 | 48.75175 | 44.24596 | 4236 ft | 225 kts | 245° |
| 2026-04-23 13:30 | 48.74371 | 44.22558 | 5087 ft | 234 kts | 230° |
| 2026-04-23 13:31 | 48.71436 | 44.21165 | 6450 ft | 267 kts | 171° |
| 2026-04-23 13:31 | 48.69766 | 44.22517 | 7297 ft | 283 kts | 141° |
| 2026-04-23 13:31 | 48.68341 | 44.24617 | 8127 ft | 288 kts | 143° |
| 2026-04-23 13:32 | 48.66828 | 44.26650 | 8989 ft | 291 kts | 143° |
| 2026-04-23 13:32 | 48.65300 | 44.28695 | 9812 ft | 296 kts | 143° |
| 2026-04-23 13:32 | 48.63720 | 44.30793 | 10355 ft | 311 kts | 143° |
| 2026-04-23 13:32 | 48.62030 | 44.33008 | 10701 ft | 332 kts | 143° |
| 2026-04-23 13:33 | 48.60238 | 44.35350 | 11123 ft | 348 kts | 143° |
| 2026-04-23 13:33 | 48.58379 | 44.37784 | 11680 ft | 357 kts | 143° |
| 2026-04-23 13:33 | 48.56509 | 44.40259 | 12472 ft | 359 kts | 143° |
| 2026-04-23 13:33 | 48.54617 | 44.42771 | 13149 ft | 365 kts | 143° |
| 2026-04-23 13:34 | 48.52706 | 44.45313 | 13874 ft | 368 kts | 143° |
| 2026-04-23 13:34 | 48.50777 | 44.47880 | 14567 ft | 372 kts | 143° |
| 2026-04-23 13:34 | 48.48821 | 44.50480 | 15237 ft | 376 kts | 143° |
| 2026-04-23 13:34 | 48.46848 | 44.53099 | 15916 ft | 380 kts | 143° |
| 2026-04-23 13:35 | 48.44855 | 44.55744 | 16556 ft | 384 kts | 143° |
| 2026-04-23 13:35 | 48.42840 | 44.58416 | 17185 ft | 387 kts | 143° |
| 2026-04-23 13:35 | 48.40808 | 44.61106 | 17783 ft | 391 kts | 144° |
| 2026-04-23 13:35 | 48.38755 | 44.63821 | 18382 ft | 395 kts | 144° |
| 2026-04-23 13:36 | 48.36709 | 44.66526 | 18945 ft | 398 kts | 144° |
| 2026-04-23 13:36 | 48.34618 | 44.69286 | 19514 ft | 401 kts | 144° |
| 2026-04-23 13:36 | 48.32513 | 44.72060 | 20056 ft | 404 kts | 144° |
| 2026-04-23 13:36 | 48.30389 | 44.74860 | 20598 ft | 407 kts | 144° |
| 2026-04-23 13:37 | 48.28251 | 44.77674 | 21111 ft | 411 kts | 144° |
| 2026-04-23 13:37 | 48.26094 | 44.80510 | 21619 ft | 414 kts | 144° |
| 2026-04-23 13:37 | 48.23920 | 44.83365 | 22112 ft | 417 kts | 144° |
| 2026-04-23 13:37 | 48.21730 | 44.86239 | 22597 ft | 420 kts | 144° |
| 2026-04-23 13:38 | 48.19524 | 44.89130 | 23079 ft | 422 kts | 144° |
| 2026-04-23 13:38 | 48.17306 | 44.92032 | 23532 ft | 425 kts | 144° |
| 2026-04-23 13:38 | 48.15070 | 44.94957 | 23983 ft | 428 kts | 144° |
| 2026-04-23 13:38 | 48.12820 | 44.97896 | 24415 ft | 431 kts | 144° |
| 2026-04-23 13:39 | 48.10556 | 45.00850 | 24826 ft | 434 kts | 144° |
| 2026-04-23 13:39 | 48.08274 | 45.03823 | 25234 ft | 436 kts | 144° |
| 2026-04-23 13:39 | 48.05978 | 45.06812 | 25639 ft | 439 kts | 144° |
| 2026-04-23 13:39 | 48.03670 | 45.09810 | 26026 ft | 441 kts | 145° |
| 2026-04-23 13:40 | 48.01142 | 45.12311 | 26373 ft | 433 kts | 159° |
| 2026-04-23 13:40 | 47.98439 | 45.14333 | 26703 ft | 437 kts | 158° |
| 2026-04-23 13:40 | 47.95723 | 45.16411 | 27060 ft | 439 kts | 158° |
| 2026-04-23 13:40 | 47.92992 | 45.18474 | 27418 ft | 442 kts | 159° |
| 2026-04-23 13:41 | 47.90240 | 45.20541 | 27758 ft | 444 kts | 159° |
| 2026-04-23 13:41 | 47.87472 | 45.22615 | 28099 ft | 446 kts | 159° |
| 2026-04-23 13:41 | 47.84693 | 45.24693 | 28418 ft | 448 kts | 159° |
| 2026-04-23 13:41 | 47.81902 | 45.26777 | 28745 ft | 451 kts | 159° |
| 2026-04-23 13:42 | 47.79090 | 45.28875 | 29063 ft | 453 kts | 159° |
| 2026-04-23 13:42 | 47.76275 | 45.30973 | 29362 ft | 455 kts | 159° |
| 2026-04-23 13:42 | 47.70463 | 45.35295 | 29966 ft | 459 kts | 159° |
| 2026-04-23 13:43 | 47.67602 | 45.37419 | 30257 ft | 461 kts | 159° |
| 2026-04-23 13:43 | 47.64727 | 45.39550 | 30542 ft | 463 kts | 159° |
| 2026-04-23 13:43 | 47.61836 | 45.41691 | 30819 ft | 465 kts | 159° |
| 2026-04-23 13:43 | 47.58941 | 45.43832 | 31169 ft | 465 kts | 159° |
| 2026-04-23 13:44 | 47.56051 | 45.45967 | 31545 ft | 464 kts | 159° |
| 2026-04-23 13:44 | 47.53166 | 45.48095 | 31907 ft | 463 kts | 159° |
| 2026-04-23 13:44 | 47.50279 | 45.50222 | 32271 ft | 462 kts | 159° |
| 2026-04-23 13:44 | 47.47406 | 45.52336 | 32616 ft | 462 kts | 159° |
| 2026-04-23 13:45 | 47.45462 | 45.53765 | 32857 ft | 461 kts | 159° |
| 2026-04-23 13:45 | 47.41662 | 45.56555 | 33305 ft | 460 kts | 159° |
| 2026-04-23 13:45 | 47.38800 | 45.58654 | 33634 ft | 459 kts | 159° |
| 2026-04-23 13:45 | 47.35936 | 45.60751 | 33960 ft | 459 kts | 159° |
| 2026-04-23 13:46 | 47.33081 | 45.62839 | 34274 ft | 458 kts | 159° |
| 2026-04-23 13:46 | 47.30226 | 45.64926 | 34594 ft | 457 kts | 159° |
| 2026-04-23 13:46 | 47.27382 | 45.67010 | 34881 ft | 458 kts | 157° |
| 2026-04-23 13:46 | 47.24728 | 45.69659 | 35163 ft | 466 kts | 142° |
| 2026-04-23 13:47 | 47.22591 | 45.73290 | 35437 ft | 474 kts | 127° |
| 2026-04-23 13:47 | 47.21023 | 45.77583 | 35660 ft | 479 kts | 120° |
| 2026-04-23 13:47 | 47.19542 | 45.81976 | 35843 ft | 480 kts | 120° |
| 2026-04-23 13:47 | 47.18079 | 45.86381 | 36087 ft | 480 kts | 120° |
| 2026-04-23 13:48 | 47.16628 | 45.90798 | 36329 ft | 479 kts | 119° |
| 2026-04-23 13:48 | 47.15185 | 45.95208 | 36537 ft | 479 kts | 119° |
| 2026-04-23 13:48 | 47.13741 | 45.99623 | 36704 ft | 480 kts | 119° |
| 2026-04-23 13:49 | 47.10845 | 46.08455 | 36724 ft | 479 kts | 120° |
| 2026-04-23 13:49 | 47.07953 | 46.17247 | 36719 ft | 478 kts | 120° |
| 2026-04-23 13:50 | 47.05058 | 46.25963 | 36718 ft | 477 kts | 123° |
| 2026-04-23 13:50 | 47.01581 | 46.34189 | 36720 ft | 475 kts | 126° |
| 2026-04-23 13:51 | 46.98041 | 46.42351 | 36720 ft | 475 kts | 127° |
| 2026-04-23 13:51 | 46.94493 | 46.50496 | 36719 ft | 475 kts | 127° |
| 2026-04-23 13:52 | 46.90936 | 46.58636 | 36719 ft | 475 kts | 127° |
| 2026-04-23 13:52 | 46.87375 | 46.66764 | 36719 ft | 475 kts | 127° |
| 2026-04-23 13:53 | 46.83811 | 46.74872 | 36719 ft | 474 kts | 127° |
| 2026-04-23 13:53 | 46.80242 | 46.82969 | 36719 ft | 474 kts | 127° |
| 2026-04-23 13:54 | 46.76663 | 46.91064 | 36720 ft | 474 kts | 127° |
| 2026-04-23 13:54 | 46.73687 | 46.97776 | 36719 ft | 474 kts | 127° |
| 2026-04-23 13:55 | 46.70103 | 47.05849 | 36718 ft | 474 kts | 127° |
| 2026-04-23 13:55 | 46.66630 | 47.13839 | 36695 ft | 458 kts | 121° |
| 2026-04-23 13:56 | 46.63222 | 47.21667 | 36606 ft | 458 kts | 122° |
| 2026-04-23 13:56 | 46.61534 | 47.25531 | 36773 ft | 448 kts | 122° |
| 2026-04-23 13:56 | 46.59873 | 47.29327 | 36801 ft | 442 kts | 122° |
| 2026-04-23 13:57 | 46.56577 | 47.36841 | 36777 ft | 440 kts | 122° |
| 2026-04-23 13:57 | 46.53285 | 47.44331 | 36775 ft | 440 kts | 122° |
| 2026-04-23 13:58 | 46.49985 | 47.51816 | 36775 ft | 440 kts | 122° |
| 2026-04-23 13:58 | 46.46701 | 47.59245 | 36775 ft | 440 kts | 123° |
| 2026-04-23 13:59 | 46.43392 | 47.66712 | 36774 ft | 440 kts | 123° |
| 2026-04-23 13:59 | 46.40077 | 47.74172 | 36775 ft | 440 kts | 123° |
| 2026-04-23 14:00 | 46.36757 | 47.81622 | 36774 ft | 440 kts | 123° |
| 2026-04-23 14:00 | 46.33435 | 47.89058 | 36774 ft | 440 kts | 123° |
| 2026-04-23 14:01 | 46.30107 | 47.96492 | 36776 ft | 440 kts | 123° |
| 2026-04-23 14:01 | 46.28433 | 48.00194 | 36773 ft | 440 kts | 126° |
| 2026-04-23 14:02 | 46.22253 | 48.10940 | 36775 ft | 440 kts | 130° |
| 2026-04-23 14:02 | 46.18295 | 48.17685 | 36774 ft | 440 kts | 130° |
| 2026-04-23 14:03 | 46.14497 | 48.24144 | 36773 ft | 440 kts | 130° |
| 2026-04-23 14:03 | 46.10536 | 48.30863 | 36775 ft | 440 kts | 130° |
| 2026-04-23 14:04 | 46.06218 | 48.38167 | 36775 ft | 440 kts | 130° |
| 2026-04-23 14:04 | 46.02247 | 48.44868 | 36774 ft | 440 kts | 130° |
| 2026-04-23 14:05 | 45.98269 | 48.51563 | 36773 ft | 440 kts | 130° |
| 2026-04-23 14:05 | 45.94938 | 48.57159 | 36774 ft | 440 kts | 130° |
| 2026-04-23 14:06 | 45.90953 | 48.63836 | 36774 ft | 440 kts | 131° |
| 2026-04-23 14:06 | 45.86968 | 48.70498 | 36830 ft | 440 kts | 131° |
| 2026-04-23 14:07 | 45.83001 | 48.77115 | 36826 ft | 440 kts | 131° |
| 2026-04-23 14:07 | 45.77009 | 48.87078 | 36829 ft | 440 kts | 131° |
| 2026-04-23 14:08 | 45.73008 | 48.93710 | 36829 ft | 440 kts | 131° |
| 2026-04-23 14:08 | 45.69003 | 49.00335 | 36827 ft | 440 kts | 131° |
| 2026-04-23 14:09 | 45.64994 | 49.06948 | 36831 ft | 440 kts | 131° |
| 2026-04-23 14:09 | 45.60983 | 49.13551 | 36826 ft | 440 kts | 131° |
| 2026-04-23 14:10 | 45.56965 | 49.20150 | 36829 ft | 440 kts | 131° |
| 2026-04-23 14:10 | 45.52942 | 49.26740 | 36831 ft | 440 kts | 131° |
| 2026-04-23 14:11 | 45.48919 | 49.33315 | 36827 ft | 440 kts | 131° |
| 2026-04-23 14:11 | 45.44889 | 49.39889 | 36827 ft | 440 kts | 131° |
| 2026-04-23 14:12 | 45.40859 | 49.46448 | 36826 ft | 440 kts | 131° |
| 2026-04-23 14:12 | 45.39078 | 49.49972 | 36809 ft | 439 kts | 116° |
| 2026-04-23 14:13 | 45.36156 | 49.62677 | 36832 ft | 440 kts | 106° |
| 2026-04-23 14:13 | 45.34444 | 49.71028 | 36830 ft | 440 kts | 106° |
| 2026-04-23 14:14 | 45.32748 | 49.79394 | 36832 ft | 440 kts | 106° |
| 2026-04-23 14:14 | 45.31050 | 49.87746 | 36829 ft | 440 kts | 106° |
| 2026-04-23 14:15 | 45.29361 | 49.96095 | 36858 ft | 440 kts | 105° |
| 2026-04-23 14:15 | 45.27688 | 50.04456 | 36965 ft | 440 kts | 105° |
| 2026-04-23 14:16 | 45.26026 | 50.12821 | 37138 ft | 440 kts | 105° |
| 2026-04-23 14:16 | 45.24371 | 50.21195 | 37203 ft | 440 kts | 105° |
| 2026-04-23 14:17 | 45.23546 | 50.25382 | 37093 ft | 440 kts | 105° |
| 2026-04-23 14:17 | 45.22725 | 50.29555 | 36801 ft | 439 kts | 105° |
| 2026-04-23 14:17 | 45.21908 | 50.33711 | 36330 ft | 437 kts | 105° |
| 2026-04-23 14:17 | 45.21092 | 50.37863 | 35649 ft | 436 kts | 105° |
| 2026-04-23 14:18 | 45.20277 | 50.42012 | 34911 ft | 437 kts | 105° |
| 2026-04-23 14:18 | 45.19460 | 50.46177 | 34328 ft | 441 kts | 105° |
| 2026-04-23 14:18 | 45.17826 | 50.54510 | 35069 ft | 427 kts | 105° |
| 2026-04-23 14:19 | 45.17034 | 50.58549 | 35391 ft | 427 kts | 105° |
| 2026-04-23 14:19 | 45.16236 | 50.62626 | 35538 ft | 430 kts | 105° |
| 2026-04-23 14:19 | 45.15439 | 50.66694 | 35862 ft | 427 kts | 105° |
| 2026-04-23 14:19 | 45.14649 | 50.70731 | 36232 ft | 423 kts | 105° |
| 2026-04-23 14:20 | 45.13864 | 50.74741 | 36451 ft | 424 kts | 105° |
| 2026-04-23 14:20 | 45.13073 | 50.78784 | 36466 ft | 429 kts | 105° |
| 2026-04-23 14:20 | 45.10923 | 50.86785 | 36435 ft | 440 kts | 114° |
| 2026-04-23 14:21 | 45.09778 | 50.90798 | 36625 ft | 440 kts | 110° |
| 2026-04-23 14:21 | 45.08761 | 50.94890 | 36787 ft | 441 kts | 108° |
| 2026-04-23 14:21 | 45.06878 | 51.03161 | 36832 ft | 440 kts | 107° |
| 2026-04-23 14:22 | 45.05072 | 51.11422 | 36831 ft | 440 kts | 107° |
| 2026-04-23 14:22 | 45.03276 | 51.19696 | 36830 ft | 440 kts | 107° |
| 2026-04-23 14:23 | 45.01488 | 51.27910 | 36829 ft | 440 kts | 107° |
| 2026-04-23 14:23 | 44.99683 | 51.36166 | 36826 ft | 440 kts | 107° |
| 2026-04-23 14:24 | 44.97870 | 51.44425 | 36829 ft | 440 kts | 107° |
| 2026-04-23 14:24 | 44.96052 | 51.52679 | 36833 ft | 440 kts | 107° |
| 2026-04-23 14:25 | 44.94229 | 51.60924 | 36829 ft | 440 kts | 107° |
| 2026-04-23 14:25 | 44.92400 | 51.69163 | 36829 ft | 440 kts | 107° |
| 2026-04-23 14:26 | 44.90565 | 51.77396 | 36847 ft | 440 kts | 107° |
| 2026-04-23 14:26 | 44.88723 | 51.85625 | 36855 ft | 440 kts | 107° |
| 2026-04-23 14:27 | 44.86874 | 51.93868 | 36857 ft | 440 kts | 107° |
| 2026-04-23 14:27 | 44.85022 | 52.02091 | 36857 ft | 440 kts | 107° |
| 2026-04-23 14:28 | 44.83165 | 52.10309 | 36857 ft | 440 kts | 107° |
| 2026-04-23 14:28 | 44.81284 | 52.18519 | 36857 ft | 440 kts | 108° |
| 2026-04-23 14:29 | 44.79399 | 52.26713 | 36857 ft | 440 kts | 108° |
| 2026-04-23 14:29 | 44.77507 | 52.34911 | 36856 ft | 440 kts | 108° |
| 2026-04-23 14:30 | 44.75609 | 52.43106 | 36857 ft | 440 kts | 108° |
| 2026-04-23 14:30 | 44.73707 | 52.51291 | 36856 ft | 440 kts | 108° |
| 2026-04-23 14:31 | 44.71811 | 52.59420 | 36857 ft | 440 kts | 108° |
| 2026-04-23 14:31 | 44.69897 | 52.67592 | 36857 ft | 440 kts | 108° |
| 2026-04-23 14:32 | 44.67975 | 52.75768 | 36857 ft | 440 kts | 108° |
| 2026-04-23 14:32 | 44.66050 | 52.83930 | 36857 ft | 440 kts | 108° |
| 2026-04-23 14:33 | 44.64119 | 52.92085 | 36857 ft | 440 kts | 108° |
| 2026-04-23 14:33 | 44.62184 | 53.00226 | 36857 ft | 440 kts | 108° |
| 2026-04-23 14:34 | 44.60236 | 53.08394 | 36857 ft | 440 kts | 108° |
| 2026-04-23 14:34 | 44.58287 | 53.16535 | 36856 ft | 440 kts | 108° |
| 2026-04-23 14:35 | 44.56333 | 53.24672 | 36857 ft | 440 kts | 108° |
| 2026-04-23 14:35 | 44.54384 | 53.32752 | 36856 ft | 440 kts | 108° |
| 2026-04-23 14:36 | 44.52417 | 53.40880 | 36839 ft | 440 kts | 108° |
| 2026-04-23 14:36 | 44.50447 | 53.48994 | 36829 ft | 441 kts | 109° |
| 2026-04-23 14:37 | 44.48465 | 53.57125 | 36832 ft | 442 kts | 109° |
| 2026-04-23 14:37 | 44.46473 | 53.65268 | 36828 ft | 442 kts | 109° |
| 2026-04-23 14:38 | 44.44476 | 53.73404 | 36833 ft | 442 kts | 109° |
| 2026-04-23 14:38 | 44.42477 | 53.81541 | 36756 ft | 446 kts | 113° |
| 2026-04-23 14:39 | 44.40435 | 53.89777 | 36845 ft | 451 kts | 113° |
| 2026-04-23 14:39 | 44.38362 | 53.98127 | 36828 ft | 458 kts | 113° |
| 2026-04-23 14:40 | 44.36595 | 54.05226 | 36828 ft | 464 kts | 113° |
| 2026-04-23 14:40 | 44.34449 | 54.13816 | 36830 ft | 472 kts | 113° |
| 2026-04-23 14:41 | 44.32262 | 54.22536 | 36826 ft | 479 kts | 113° |
| 2026-04-23 14:41 | 44.30039 | 54.31368 | 36832 ft | 485 kts | 113° |
| 2026-04-23 14:42 | 44.27796 | 54.40241 | 36831 ft | 484 kts | 113° |
| 2026-04-23 14:42 | 44.25552 | 54.49089 | 36830 ft | 484 kts | 114° |
| 2026-04-23 14:43 | 44.23296 | 54.57949 | 36827 ft | 484 kts | 114° |
| 2026-04-23 14:43 | 44.21051 | 54.66731 | 36828 ft | 484 kts | 114° |
| 2026-04-23 14:44 | 44.18786 | 54.75559 | 36827 ft | 484 kts | 114° |
| 2026-04-23 14:44 | 44.16514 | 54.84381 | 36830 ft | 484 kts | 114° |
| 2026-04-23 14:45 | 44.14231 | 54.93212 | 36832 ft | 484 kts | 114° |
| 2026-04-23 14:45 | 44.11945 | 55.02022 | 36826 ft | 484 kts | 114° |
| 2026-04-23 14:46 | 44.09652 | 55.10827 | 36831 ft | 484 kts | 114° |
| 2026-04-23 14:46 | 44.07351 | 55.19630 | 36830 ft | 484 kts | 114° |
| 2026-04-23 14:47 | 44.05046 | 55.28416 | 36832 ft | 484 kts | 114° |
| 2026-04-23 14:47 | 44.02732 | 55.37202 | 36826 ft | 484 kts | 114° |
| 2026-04-23 14:48 | 44.00413 | 55.45977 | 36828 ft | 484 kts | 114° |
| 2026-04-23 14:48 | 43.98152 | 55.54498 | 36829 ft | 483 kts | 114° |
| 2026-04-23 14:49 | 43.95857 | 55.63121 | 36837 ft | 476 kts | 114° |
| 2026-04-23 14:49 | 43.93560 | 55.71725 | 36828 ft | 476 kts | 114° |
| 2026-04-23 14:50 | 43.91256 | 55.80329 | 36830 ft | 476 kts | 114° |
| 2026-04-23 14:50 | 43.88946 | 55.88925 | 36829 ft | 476 kts | 114° |
| 2026-04-23 14:51 | 43.86627 | 55.97526 | 36830 ft | 476 kts | 114° |
| 2026-04-23 14:51 | 43.83875 | 56.05807 | 36838 ft | 473 kts | 120° |
| 2026-04-23 14:52 | 43.80975 | 56.13975 | 36826 ft | 473 kts | 120° |
| 2026-04-23 14:52 | 43.78059 | 56.22141 | 36827 ft | 473 kts | 120° |
| 2026-04-23 14:53 | 43.75142 | 56.30287 | 36833 ft | 473 kts | 120° |
| 2026-04-23 14:53 | 43.72215 | 56.38436 | 36832 ft | 473 kts | 120° |
| 2026-04-23 14:54 | 43.69285 | 56.46570 | 36826 ft | 473 kts | 120° |
| 2026-04-23 14:54 | 43.66348 | 56.54699 | 36826 ft | 473 kts | 120° |
| 2026-04-23 14:55 | 43.63408 | 56.62813 | 36832 ft | 473 kts | 120° |
| 2026-04-23 14:55 | 43.60459 | 56.70929 | 36827 ft | 473 kts | 120° |
| 2026-04-23 14:56 | 43.57507 | 56.79028 | 36828 ft | 473 kts | 120° |
| 2026-04-23 14:56 | 43.54570 | 56.87064 | 36826 ft | 473 kts | 120° |
| 2026-04-23 14:57 | 43.51606 | 56.95148 | 36831 ft | 472 kts | 120° |
| 2026-04-23 14:57 | 43.48636 | 57.03225 | 36831 ft | 472 kts | 120° |
| 2026-04-23 14:58 | 43.45664 | 57.11285 | 36826 ft | 472 kts | 121° |
| 2026-04-23 14:58 | 43.42687 | 57.19337 | 36840 ft | 472 kts | 120° |
| 2026-04-23 14:59 | 43.39701 | 57.27388 | 36949 ft | 473 kts | 120° |
| 2026-04-23 14:59 | 43.36711 | 57.35427 | 36937 ft | 472 kts | 121° |
| 2026-04-23 15:00 | 43.33716 | 57.43456 | 36939 ft | 472 kts | 121° |
| 2026-04-23 15:00 | 43.30719 | 57.51469 | 36939 ft | 472 kts | 121° |
| 2026-04-23 15:01 | 43.27715 | 57.59477 | 36938 ft | 472 kts | 121° |
| 2026-04-23 15:01 | 43.24705 | 57.67477 | 36938 ft | 472 kts | 121° |
| 2026-04-23 15:02 | 43.21691 | 57.75466 | 36939 ft | 472 kts | 121° |
| 2026-04-23 15:02 | 43.18674 | 57.83443 | 36939 ft | 472 kts | 121° |
| 2026-04-23 15:03 | 43.15648 | 57.91417 | 36939 ft | 472 kts | 121° |
| 2026-04-23 15:03 | 43.12617 | 57.99384 | 36938 ft | 472 kts | 121° |
| 2026-04-23 15:04 | 43.09578 | 58.07348 | 36939 ft | 472 kts | 121° |
| 2026-04-23 15:04 | 43.06533 | 58.15307 | 36939 ft | 472 kts | 121° |
| 2026-04-23 15:05 | 43.03485 | 58.23252 | 36937 ft | 472 kts | 121° |
| 2026-04-23 15:05 | 43.00427 | 58.31198 | 36939 ft | 472 kts | 121° |
| 2026-04-23 15:06 | 42.97367 | 58.39130 | 36938 ft | 472 kts | 121° |
| 2026-04-23 15:06 | 42.94302 | 58.47050 | 36939 ft | 472 kts | 121° |
| 2026-04-23 15:07 | 42.91231 | 58.54965 | 36939 ft | 472 kts | 121° |
| 2026-04-23 15:07 | 42.88156 | 58.62868 | 36939 ft | 472 kts | 121° |
| 2026-04-23 15:08 | 42.85078 | 58.70766 | 36939 ft | 472 kts | 121° |
| 2026-04-23 15:09 | 42.80445 | 58.82608 | 36937 ft | 474 kts | 122° |
| 2026-04-23 15:09 | 42.77351 | 58.90489 | 36938 ft | 475 kts | 122° |
| 2026-04-23 15:10 | 42.74739 | 58.97131 | 36939 ft | 475 kts | 122° |
| 2026-04-23 15:10 | 42.71115 | 59.06342 | 36939 ft | 475 kts | 122° |
| 2026-04-23 15:11 | 42.67992 | 59.14255 | 36939 ft | 475 kts | 122° |
| 2026-04-23 15:11 | 42.64864 | 59.22159 | 36938 ft | 475 kts | 122° |
| 2026-04-23 15:12 | 42.61732 | 59.30053 | 36938 ft | 475 kts | 122° |
| 2026-04-23 15:12 | 42.58592 | 59.37943 | 36938 ft | 475 kts | 122° |
| 2026-04-23 15:13 | 42.55446 | 59.45829 | 36939 ft | 475 kts | 122° |
| 2026-04-23 15:13 | 42.52295 | 59.53706 | 36939 ft | 475 kts | 122° |
| 2026-04-23 15:14 | 42.49153 | 59.61578 | 36937 ft | 476 kts | 120° |
| 2026-04-23 15:14 | 42.46282 | 59.69664 | 36941 ft | 476 kts | 119° |
| 2026-04-23 15:15 | 42.43378 | 59.77722 | 36939 ft | 476 kts | 120° |
| 2026-04-23 15:15 | 42.40462 | 59.85776 | 36938 ft | 476 kts | 120° |
| 2026-04-23 15:16 | 42.37543 | 59.93814 | 36940 ft | 476 kts | 120° |
| 2026-04-23 15:16 | 42.34636 | 60.01797 | 36937 ft | 476 kts | 120° |
| 2026-04-23 15:17 | 42.31705 | 60.09825 | 36938 ft | 476 kts | 120° |
| 2026-04-23 15:17 | 42.28767 | 60.17849 | 36938 ft | 477 kts | 120° |
| 2026-04-23 15:18 | 42.25823 | 60.25865 | 36939 ft | 477 kts | 120° |
| 2026-04-23 15:18 | 42.22869 | 60.33886 | 36938 ft | 477 kts | 120° |
| 2026-04-23 15:19 | 42.19917 | 60.41879 | 36938 ft | 476 kts | 120° |
| 2026-04-23 15:19 | 42.16962 | 60.49858 | 36940 ft | 476 kts | 120° |
| 2026-04-23 15:20 | 42.14502 | 60.56481 | 36939 ft | 476 kts | 120° |
| 2026-04-23 15:20 | 42.11055 | 60.65742 | 36939 ft | 475 kts | 120° |
| 2026-04-23 15:21 | 42.08084 | 60.73697 | 36939 ft | 476 kts | 121° |
| 2026-04-23 15:21 | 42.05103 | 60.81654 | 36939 ft | 476 kts | 121° |
| 2026-04-23 15:22 | 42.02121 | 60.89595 | 36942 ft | 475 kts | 121° |
| 2026-04-23 15:22 | 41.99140 | 60.97512 | 36938 ft | 474 kts | 121° |
| 2026-04-23 15:23 | 41.96154 | 61.05417 | 36939 ft | 474 kts | 121° |
| 2026-04-23 15:23 | 41.93164 | 61.13313 | 36939 ft | 474 kts | 121° |
| 2026-04-23 15:24 | 41.90170 | 61.21200 | 36939 ft | 474 kts | 121° |
| 2026-04-23 15:24 | 41.87169 | 61.29081 | 36939 ft | 474 kts | 121° |
| 2026-04-23 15:25 | 41.84162 | 61.36957 | 36940 ft | 474 kts | 121° |
| 2026-04-23 15:25 | 41.81662 | 61.43489 | 36939 ft | 474 kts | 121° |
| 2026-04-23 15:26 | 41.78135 | 61.52677 | 36939 ft | 474 kts | 121° |
| 2026-04-23 15:26 | 41.75113 | 61.60529 | 36938 ft | 474 kts | 121° |
| 2026-04-23 15:27 | 41.72106 | 61.68321 | 36939 ft | 474 kts | 121° |
| 2026-04-23 15:27 | 41.69073 | 61.76158 | 36939 ft | 474 kts | 121° |
| 2026-04-23 15:28 | 41.66034 | 61.83990 | 36939 ft | 474 kts | 121° |
| 2026-04-23 15:28 | 41.62989 | 61.91814 | 36938 ft | 474 kts | 121° |
| 2026-04-23 15:29 | 41.60453 | 61.98315 | 36955 ft | 476 kts | 122° |
| 2026-04-23 15:29 | 41.57378 | 62.06180 | 36966 ft | 478 kts | 122° |
| 2026-04-23 15:30 | 41.54299 | 62.14034 | 36967 ft | 477 kts | 122° |
| 2026-04-23 15:30 | 41.51214 | 62.21880 | 36966 ft | 477 kts | 122° |
| 2026-04-23 15:31 | 41.48123 | 62.29723 | 36966 ft | 477 kts | 122° |
| 2026-04-23 15:31 | 41.45028 | 62.37554 | 36966 ft | 477 kts | 122° |
| 2026-04-23 15:32 | 41.41927 | 62.45377 | 36967 ft | 477 kts | 123° |
| 2026-04-23 15:32 | 41.38841 | 62.53144 | 36965 ft | 477 kts | 123° |
| 2026-04-23 15:33 | 41.35729 | 62.60956 | 36966 ft | 477 kts | 123° |
| 2026-04-23 15:33 | 41.32610 | 62.68765 | 36966 ft | 477 kts | 123° |
| 2026-04-23 15:34 | 41.29490 | 62.76553 | 36966 ft | 477 kts | 123° |
| 2026-04-23 15:34 | 41.26363 | 62.84341 | 36966 ft | 477 kts | 123° |
| 2026-04-23 15:35 | 41.23229 | 62.92124 | 36966 ft | 477 kts | 123° |
| 2026-04-23 15:35 | 41.20092 | 62.99897 | 36966 ft | 477 kts | 123° |
| 2026-04-23 15:36 | 41.16947 | 63.07666 | 36965 ft | 478 kts | 123° |
| 2026-04-23 15:36 | 41.13798 | 63.15426 | 36968 ft | 478 kts | 123° |
| 2026-04-23 15:37 | 41.10647 | 63.23171 | 36967 ft | 477 kts | 123° |
| 2026-04-23 15:37 | 41.07490 | 63.30909 | 36966 ft | 477 kts | 123° |
| 2026-04-23 15:38 | 41.04324 | 63.38651 | 36966 ft | 478 kts | 123° |
| 2026-04-23 15:38 | 41.01154 | 63.46381 | 36966 ft | 478 kts | 123° |
| 2026-04-23 15:39 | 40.97983 | 63.54094 | 36991 ft | 476 kts | 124° |
| 2026-04-23 15:39 | 40.94821 | 63.61766 | 36993 ft | 474 kts | 125° |
| 2026-04-23 15:40 | 40.91654 | 63.69429 | 36993 ft | 475 kts | 125° |
| 2026-04-23 15:40 | 40.88483 | 63.77084 | 36993 ft | 475 kts | 125° |
| 2026-04-23 15:41 | 40.85303 | 63.84740 | 36995 ft | 475 kts | 125° |
| 2026-04-23 15:41 | 40.82117 | 63.92390 | 36993 ft | 475 kts | 125° |
| 2026-04-23 15:42 | 40.78946 | 63.99986 | 36993 ft | 476 kts | 125° |
| 2026-04-23 15:42 | 40.75744 | 64.07637 | 36991 ft | 476 kts | 125° |
| 2026-04-23 15:43 | 40.72542 | 64.15268 | 36993 ft | 475 kts | 125° |
| 2026-04-23 15:43 | 40.69345 | 64.22868 | 36992 ft | 474 kts | 125° |
| 2026-04-23 15:44 | 40.66145 | 64.30456 | 36993 ft | 473 kts | 125° |
| 2026-04-23 15:44 | 40.62943 | 64.38030 | 36995 ft | 473 kts | 125° |
| 2026-04-23 15:45 | 40.59735 | 64.45599 | 36994 ft | 473 kts | 125° |
| 2026-04-23 15:45 | 40.56524 | 64.53156 | 36993 ft | 473 kts | 125° |
| 2026-04-23 15:46 | 40.53311 | 64.60700 | 36994 ft | 473 kts | 125° |
| 2026-04-23 15:46 | 40.50108 | 64.68201 | 36993 ft | 474 kts | 126° |
| 2026-04-23 15:47 | 40.46881 | 64.75739 | 36993 ft | 474 kts | 126° |
| 2026-04-23 15:47 | 40.43648 | 64.83273 | 36993 ft | 474 kts | 126° |
| 2026-04-23 15:48 | 40.40410 | 64.90800 | 36993 ft | 474 kts | 126° |
| 2026-04-23 15:48 | 40.37164 | 64.98326 | 36993 ft | 474 kts | 126° |
| 2026-04-23 15:49 | 40.33910 | 65.05853 | 37011 ft | 477 kts | 126° |
| 2026-04-23 15:49 | 40.30625 | 65.13433 | 37020 ft | 478 kts | 126° |
| 2026-04-23 15:50 | 40.27336 | 65.21004 | 37020 ft | 478 kts | 127° |
| 2026-04-23 15:50 | 40.24044 | 65.28561 | 37020 ft | 478 kts | 127° |
| 2026-04-23 15:51 | 40.20748 | 65.36111 | 37020 ft | 478 kts | 127° |
| 2026-04-23 15:51 | 40.17443 | 65.43661 | 37021 ft | 478 kts | 127° |
| 2026-04-23 15:52 | 40.14140 | 65.51190 | 37020 ft | 478 kts | 127° |
| 2026-04-23 15:52 | 40.10825 | 65.58724 | 37020 ft | 478 kts | 127° |
| 2026-04-23 15:53 | 40.07507 | 65.66251 | 37022 ft | 478 kts | 127° |
| 2026-04-23 15:53 | 40.04206 | 65.73720 | 37021 ft | 478 kts | 127° |
| 2026-04-23 15:54 | 40.00860 | 65.81276 | 37021 ft | 478 kts | 127° |
| 2026-04-23 15:54 | 39.97530 | 65.88778 | 37021 ft | 478 kts | 127° |
| 2026-04-23 15:55 | 39.94193 | 65.96280 | 37020 ft | 478 kts | 127° |
| 2026-04-23 15:55 | 39.90875 | 66.03720 | 37020 ft | 478 kts | 127° |
| 2026-04-23 15:56 | 39.87528 | 66.11209 | 37021 ft | 479 kts | 127° |
| 2026-04-23 15:56 | 39.84175 | 66.18694 | 37021 ft | 479 kts | 127° |
| 2026-04-23 15:57 | 39.80819 | 66.26168 | 37020 ft | 479 kts | 127° |
| 2026-04-23 15:57 | 39.77457 | 66.33635 | 37023 ft | 479 kts | 127° |
| 2026-04-23 15:58 | 39.73978 | 66.40978 | 37007 ft | 469 kts | 137° |
| 2026-04-23 15:58 | 39.69616 | 66.47193 | 37018 ft | 466 kts | 140° |
| 2026-04-23 15:59 | 39.65260 | 66.53408 | 37049 ft | 463 kts | 141° |
| 2026-04-23 15:59 | 39.60929 | 66.59550 | 37046 ft | 461 kts | 141° |
| 2026-04-23 16:00 | 39.56593 | 66.65688 | 37048 ft | 462 kts | 141° |
| 2026-04-23 16:00 | 39.52253 | 66.71818 | 37047 ft | 462 kts | 141° |
| 2026-04-23 16:01 | 39.47900 | 66.77955 | 37044 ft | 464 kts | 141° |
| 2026-04-23 16:01 | 39.43514 | 66.84126 | 37052 ft | 467 kts | 141° |
| 2026-04-23 16:02 | 39.39104 | 66.90317 | 37053 ft | 468 kts | 141° |
| 2026-04-23 16:02 | 39.34712 | 66.96475 | 36746 ft | 461 kts | 141° |
| 2026-04-23 16:02 | 39.32542 | 66.99510 | 36186 ft | 458 kts | 141° |
| 2026-04-23 16:03 | 39.30405 | 67.02499 | 35873 ft | 449 kts | 142° |
| 2026-04-23 16:03 | 39.28302 | 67.05436 | 35542 ft | 440 kts | 142° |
| 2026-04-23 16:03 | 39.26236 | 67.08314 | 35126 ft | 448 kts | 142° |
| 2026-04-23 16:03 | 39.24108 | 67.11280 | 34372 ft | 451 kts | 142° |
| 2026-04-23 16:04 | 39.21972 | 67.14256 | 33631 ft | 453 kts | 142° |
| 2026-04-23 16:04 | 39.19833 | 67.17233 | 32916 ft | 453 kts | 142° |
| 2026-04-23 16:04 | 39.17685 | 67.20218 | 32193 ft | 454 kts | 141° |
| 2026-04-23 16:04 | 39.15548 | 67.23187 | 31642 ft | 452 kts | 141° |
| 2026-04-23 16:05 | 39.14091 | 67.25205 | 31291 ft | 459 kts | 141° |
| 2026-04-23 16:05 | 39.11198 | 67.29217 | 30581 ft | 463 kts | 141° |
| 2026-04-23 16:05 | 39.09002 | 67.32257 | 30076 ft | 463 kts | 141° |
| 2026-04-23 16:05 | 39.06816 | 67.35281 | 29542 ft | 459 kts | 141° |
| 2026-04-23 16:06 | 39.04651 | 67.38273 | 29023 ft | 454 kts | 141° |
| 2026-04-23 16:06 | 39.02504 | 67.41236 | 28506 ft | 451 kts | 141° |
| 2026-04-23 16:06 | 39.00376 | 67.44172 | 27986 ft | 447 kts | 141° |
| 2026-04-23 16:06 | 38.98265 | 67.47082 | 27473 ft | 443 kts | 141° |
| 2026-04-23 16:07 | 38.96170 | 67.49963 | 26981 ft | 439 kts | 141° |
| 2026-04-23 16:07 | 38.94096 | 67.52816 | 26476 ft | 439 kts | 141° |
| 2026-04-23 16:07 | 38.92004 | 67.55689 | 25936 ft | 441 kts | 141° |
| 2026-04-23 16:07 | 38.89916 | 67.58558 | 25346 ft | 438 kts | 141° |
| 2026-04-23 16:08 | 38.87836 | 67.61408 | 24963 ft | 437 kts | 141° |
| 2026-04-23 16:08 | 38.85762 | 67.64252 | 24379 ft | 434 kts | 141° |
| 2026-04-23 16:08 | 38.83706 | 67.67065 | 23912 ft | 429 kts | 141° |
| 2026-04-23 16:08 | 38.81675 | 67.69845 | 23401 ft | 426 kts | 140° |
| 2026-04-23 16:09 | 38.79657 | 67.72602 | 22879 ft | 421 kts | 140° |
| 2026-04-23 16:09 | 38.77667 | 67.75319 | 22410 ft | 416 kts | 140° |
| 2026-04-23 16:09 | 38.75690 | 67.78015 | 21923 ft | 412 kts | 140° |
| 2026-04-23 16:09 | 38.73735 | 67.80680 | 21427 ft | 408 kts | 140° |
| 2026-04-23 16:10 | 38.71796 | 67.83321 | 20955 ft | 406 kts | 140° |
| 2026-04-23 16:10 | 38.69867 | 67.85945 | 20475 ft | 404 kts | 140° |
| 2026-04-23 16:10 | 38.67945 | 67.88559 | 19988 ft | 402 kts | 140° |
| 2026-04-23 16:10 | 38.66035 | 67.91156 | 19470 ft | 400 kts | 139° |
| 2026-04-23 16:11 | 38.64162 | 67.93701 | 19037 ft | 398 kts | 139° |
| 2026-04-23 16:11 | 38.62264 | 67.96272 | 18567 ft | 397 kts | 139° |
| 2026-04-23 16:11 | 38.60375 | 67.98833 | 18102 ft | 395 kts | 139° |
| 2026-04-23 16:11 | 38.58493 | 68.01382 | 17645 ft | 393 kts | 139° |
| 2026-04-23 16:12 | 38.56623 | 68.03922 | 17133 ft | 392 kts | 137° |
| 2026-04-23 16:12 | 38.55073 | 68.06883 | 16205 ft | 413 kts | 118° |
| 2026-04-23 16:12 | 38.54297 | 68.10450 | 15513 ft | 423 kts | 100° |
| 2026-04-23 16:12 | 38.54204 | 68.14230 | 14699 ft | 429 kts | 94° |
| 2026-04-23 16:13 | 38.54157 | 68.18053 | 13844 ft | 432 kts | 94° |
| 2026-04-23 16:13 | 38.54033 | 68.25641 | 12736 ft | 421 kts | 94° |
| 2026-04-23 16:13 | 38.53967 | 68.29350 | 12229 ft | 415 kts | 94° |
| 2026-04-23 16:14 | 38.53900 | 68.33008 | 11740 ft | 409 kts | 94° |
| 2026-04-23 16:14 | 38.53832 | 68.36609 | 11266 ft | 402 kts | 94° |
| 2026-04-23 16:14 | 38.53818 | 68.40137 | 10835 ft | 396 kts | 89° |
| 2026-04-23 16:14 | 38.53973 | 68.43614 | 10501 ft | 387 kts | 89° |
| 2026-04-23 16:15 | 38.54110 | 68.47003 | 10215 ft | 377 kts | 89° |
| 2026-04-23 16:15 | 38.54233 | 68.50311 | 9927 ft | 368 kts | 90° |
| 2026-04-23 16:15 | 38.54302 | 68.53532 | 9695 ft | 358 kts | 92° |
| 2026-04-23 16:15 | 38.54322 | 68.56668 | 9484 ft | 348 kts | 92° |
| 2026-04-23 16:16 | 38.54341 | 68.59711 | 9310 ft | 336 kts | 92° |
| 2026-04-23 16:16 | 38.54347 | 68.62597 | 9033 ft | 316 kts | 92° |
| 2026-04-23 16:16 | 38.54396 | 68.64430 | 8709 ft | 309 kts | 90° |
| 2026-04-23 16:16 | 38.54424 | 68.67119 | 8248 ft | 297 kts | 93° |
| 2026-04-23 16:17 | 38.54405 | 68.69702 | 7786 ft | 282 kts | 92° |
| 2026-04-23 16:17 | 38.54400 | 68.72119 | 7010 ft | 264 kts | 92° |
| 2026-04-23 16:17 | 38.54394 | 68.74416 | 6180 ft | 252 kts | 91° |
| 2026-04-23 16:17 | 38.54388 | 68.76526 | 5957 ft | 220 kts | 91° |
| 2026-04-23 16:18 | 38.54383 | 68.78313 | 5903 ft | 183 kts | 91° |
| 2026-04-23 16:18 | 38.54378 | 68.79817 | 5825 ft | 160 kts | 90° |
| 2026-04-23 16:18 | 38.54374 | 68.81232 | 5787 ft | 159 kts | 90° |
| 2026-04-23 16:18 | 38.54370 | 68.82643 | 5717 ft | 160 kts | 90° |
| 2026-04-23 16:19 | 38.54353 | 68.84074 | 5290 ft | 164 kts | 91° |
| 2026-04-23 16:19 | 38.54323 | 68.85589 | 4638 ft | 175 kts | 92° |
| 2026-04-23 16:19 | 38.53990 | 68.86978 | 4531 ft | 157 kts | 123° |
| 2026-04-23 16:19 | 38.53165 | 68.87895 | 4614 ft | 161 kts | 154° |
| 2026-04-23 16:20 | 38.52063 | 68.88169 | 4529 ft | 164 kts | 183° |
| 2026-04-23 16:20 | 38.50982 | 68.87755 | 4321 ft | 162 kts | 211° |
| 2026-04-23 16:20 | 38.50183 | 68.86780 | 4330 ft | 163 kts | 237° |
| 2026-04-23 16:20 | 38.49663 | 68.85475 | 4337 ft | 166 kts | 248° |
| 2026-04-23 16:21 | 38.49299 | 68.84065 | 4039 ft | 171 kts | 256° |
| 2026-04-23 16:21 | 38.49008 | 68.82554 | 3788 ft | 178 kts | 257° |
| 2026-04-23 16:21 | 38.48772 | 68.80955 | 3968 ft | 190 kts | 265° |
| 2026-04-23 16:21 | 38.48732 | 68.79205 | 4215 ft | 203 kts | 268° |
| 2026-04-23 16:22 | 38.48651 | 68.77431 | 4876 ft | 209 kts | 265° |
| 2026-04-23 16:22 | 38.48547 | 68.75500 | 4825 ft | 223 kts | 269° |
| 2026-04-23 16:22 | 38.48593 | 68.73501 | 4767 ft | 228 kts | 272° |
| 2026-04-23 16:22 | 38.48630 | 68.71493 | 4903 ft | 223 kts | 271° |
| 2026-04-23 16:23 | 38.48635 | 68.69464 | 5001 ft | 235 kts | 270° |
| 2026-04-23 16:23 | 38.48636 | 68.67364 | 4341 ft | 235 kts | 272° |
| 2026-04-23 16:23 | 38.48994 | 68.65439 | 4335 ft | 211 kts | 300° |
| 2026-04-23 16:23 | 38.49884 | 68.64205 | 4406 ft | 173 kts | 326° |
| 2026-04-23 16:24 | 38.50906 | 68.63488 | 4143 ft | 167 kts | 338° |
| 2026-04-23 16:24 | 38.51982 | 68.62968 | 3773 ft | 163 kts | 346° |
| 2026-04-23 16:24 | 38.53070 | 68.62908 | 3535 ft | 155 kts | 14° |
| 2026-04-23 16:24 | 38.54035 | 68.63476 | 3503 ft | 152 kts | 38° |
| 2026-04-23 16:25 | 38.54615 | 68.64558 | 3770 ft | 153 kts | 82° |
| 2026-04-23 16:25 | 38.54695 | 68.65939 | 3686 ft | 158 kts | 91° |
| 2026-04-23 16:25 | 38.54562 | 68.67339 | 3276 ft | 159 kts | 94° |
| 2026-04-23 16:25 | 38.54462 | 68.68714 | 3037 ft | 154 kts | 94° |
| 2026-04-23 16:26 | 38.54413 | 68.70059 | 3013 ft | 153 kts | 91° |
| 2026-04-23 16:26 | 38.54314 | 68.71448 | 3119 ft | 164 kts | 92° |
| 2026-04-23 16:26 | 38.54420 | 68.72935 | 3119 ft | 176 kts | 84° |
| 2026-04-23 16:26 | 38.54362 | 68.74515 | 3375 ft | 182 kts | 91° |
| 2026-04-23 16:27 | 38.54366 | 68.76209 | 3376 ft | 198 kts | 89° |
| 2026-04-23 16:27 | 38.54381 | 68.77976 | 3027 ft | 199 kts | 89° |
| 2026-04-23 16:27 | 38.54372 | 68.79743 | 2845 ft | 200 kts | 88° |
| 2026-04-23 16:27 | 38.54359 | 68.81505 | 2590 ft | 196 kts | 89° |
| 2026-04-23 16:28 | 38.54357 | 68.83042 | 2576 ft | 124 kts | 87° |
| 2026-04-23 16:28 | 38.54368 | 68.83382 | 2582 ft | 11 kts | 89° |
| 2026-04-23 16:28 | 38.54368 | 68.83385 | 2582 ft | 0 kts | 89° |
| 2026-04-23 16:28 | 38.54368 | 68.83387 | 2582 ft | 0 kts | 78° |
| 2026-04-23 16:29 | 38.54396 | 68.83405 | 2579 ft | 10 kts | 7° |
| 2026-04-23 16:29 | 38.54460 | 68.83330 | 2580 ft | 17 kts | 301° |
| 2026-04-23 16:29 | 38.54582 | 68.83290 | 2579 ft | 21 kts | 1° |
| 2026-04-23 16:29 | 38.54683 | 68.83254 | 2577 ft | 10 kts | 290° |
| 2026-04-23 16:30 | 38.54687 | 68.83160 | 2581 ft | 14 kts | 271° |
| 2026-04-23 16:30 | 38.54689 | 68.82985 | 2584 ft | 24 kts | 271° |
| 2026-04-23 16:30 | 38.54693 | 68.82759 | 2584 ft | 27 kts | 271° |
| 2026-04-23 16:30 | 38.54688 | 68.82521 | 2577 ft | 27 kts | 270° |
| 2026-04-23 16:31 | 38.54698 | 68.82275 | 2584 ft | 28 kts | 269° |
| 2026-04-23 16:31 | 38.54699 | 68.82019 | 2584 ft | 29 kts | 270° |
| 2026-04-23 16:31 | 38.54701 | 68.81760 | 2584 ft | 26 kts | 271° |
| 2026-04-23 16:31 | 38.54704 | 68.81567 | 2582 ft | 20 kts | 271° |
| 2026-04-23 16:32 | 38.54710 | 68.81487 | 2583 ft | 7 kts | 291° |
| 2026-04-23 16:32 | 38.54746 | 68.81469 | 2579 ft | 6 kts | 12° |
| 2026-04-23 16:32 | 38.54779 | 68.81483 | 2579 ft | 0 kts | 19° |
| 2026-04-23 16:32 | 38.54782 | 68.81485 | 2580 ft | 2 kts | 19° |
| 2026-04-23 16:33 | 38.54784 | 68.81486 | 2580 ft | 0 kts | 19° |